Time;durP1;ratioP1;P1;durP2;ratioP2;P2;SDS_P1;SDS_P2;PMS_P1;PMS_P2;Temp;Humidity;BMP_temperature;BMP_pressure;BME280_temperature;BME280_humidity;BME280_pressure;Samples;Min_cycle;Max_cycle;Signal;HPM_P1;HPM_P2
2023/07/30 00:00:14;;;;;;;3.03;1.55;;;18.50;94.20;;;;;;4950708;29;20202;-92
2023/07/30 00:02:41;;;;;;;1.90;1.80;;;18.50;94.50;;;;;;4946384;29;20208;-94
2023/07/30 00:05:08;;;;;;;1.80;1.70;;;18.40;94.80;;;;;;4947844;29;20269;-94
2023/07/30 00:07:35;;;;;;;2.13;1.90;;;18.40;95.00;;;;;;4946654;29;20206;-94
2023/07/30 00:10:02;;;;;;;3.35;1.70;;;18.30;95.70;;;;;;4948470;29;20213;-94
2023/07/30 00:12:31;;;;;;;1.83;1.73;;;18.20;96.50;;;;;;4935247;29;20234;-94
2023/07/30 00:14:58;;;;;;;2.88;2.20;;;18.10;97.00;;;;;;4919960;29;20607;-94
2023/07/30 00:17:25;;;;;;;2.25;1.92;;;18.10;97.60;;;;;;4954779;29;20206;-95
2023/07/30 00:19:52;;;;;;;3.10;1.80;;;18.10;97.60;;;;;;4916920;29;20233;-95
2023/07/30 00:22:19;;;;;;;2.17;1.88;;;18.00;97.60;;;;;;4940995;29;20217;-94
2023/07/30 00:24:46;;;;;;;1.88;1.77;;;18.10;97.60;;;;;;4947843;29;20210;-94
2023/07/30 00:27:12;;;;;;;2.47;1.90;;;18.10;97.60;;;;;;4931533;29;20203;-95
2023/07/30 00:32:22;;;;;;;1.70;1.60;;;18.20;97.70;;;;;;4927326;29;20201;-94
2023/07/30 00:34:49;;;;;;;2.20;2.00;;;18.20;97.10;;;;;;4941146;29;20226;-94
2023/07/30 00:37:16;;;;;;;1.83;1.73;;;18.20;97.10;;;;;;4930877;29;20208;-94
2023/07/30 00:39:57;;;;;;;2.08;1.88;;;18.20;97.10;;;;;;4952845;29;20194;-94
2023/07/30 00:42:25;;;;;;;2.28;2.00;;;18.30;97.00;;;;;;4940264;29;20212;-94
2023/07/30 00:47:55;;;;;;;2.00;1.90;;;18.20;97.30;;;;;;4953140;29;20194;-94
2023/07/30 00:50:22;;;;;;;2.30;1.80;;;18.20;97.40;;;;;;4954588;29;20201;-93
2023/07/30 00:52:49;;;;;;;2.17;1.98;;;18.20;97.40;;;;;;4942871;29;20194;-94
2023/07/30 00:58:37;;;;;;;2.05;1.60;;;18.10;97.40;;;;;;4895272;29;20260;-94
2023/07/30 01:01:05;;;;;;;1.95;1.77;;;18.10;97.60;;;;;;4894693;29;20221;-94
2023/07/30 01:03:33;;;;;;;1.83;1.73;;;18.00;97.60;;;;;;4915687;29;20204;-94
2023/07/30 01:06:00;;;;;;;2.10;1.90;;;18.00;98.20;;;;;;4946210;29;20210;-94
2023/07/30 01:08:27;;;;;;;1.70;1.60;;;18.00;98.40;;;;;;4944691;29;20210;-94
2023/07/30 01:10:55;;;;;;;2.20;2.00;;;17.90;98.50;;;;;;4946805;29;20214;-94
2023/07/30 01:13:22;;;;;;;1.75;1.65;;;17.90;98.30;;;;;;4933559;29;20199;-94
2023/07/30 01:24:00;;;;;;;2.10;1.90;;;17.90;98.70;;;;;;4948669;29;20226;-95
2023/07/30 01:26:33;;;;;;;1.75;1.60;;;17.90;98.90;;;;;;4936287;29;20253;-94
2023/07/30 01:34:42;;;;;;;3.20;1.65;;;17.90;98.40;;;;;;4945940;29;20230;-94
2023/07/30 01:42:59;;;;;;;1.90;1.80;;;17.60;99.70;;;;;;4937163;29;20206;-94
2023/07/30 01:45:26;;;;;;;1.67;1.58;;;17.60;99.40;;;;;;4942373;29;20195;-94
2023/07/30 01:50:34;;;;;;;2.00;1.80;;;17.50;99.80;;;;;;4929201;29;20274;-94
2023/07/30 01:55:45;;;;;;;2.10;1.90;;;17.50;99.90;;;;;;4943976;29;20229;-94
2023/07/30 01:58:13;;;;;;;2.17;1.88;;;17.60;99.60;;;;;;4933518;29;20201;-94
2023/07/30 02:00:41;;;;;;;3.60;2.10;;;17.60;99.00;;;;;;4936101;29;20194;-94
2023/07/30 02:03:07;;;;;;;2.90;1.98;;;17.80;98.20;;;;;;4940580;29;20183;-94
2023/07/30 02:05:34;;;;;;;1.70;1.60;;;17.80;97.60;;;;;;4953591;29;20198;-95
2023/07/30 02:10:43;;;;;;;1.90;1.80;;;17.80;97.80;;;;;;4953465;29;20225;-94
2023/07/30 02:15:51;;;;;;;2.97;1.70;;;17.70;98.10;;;;;;4935806;29;20257;-94
2023/07/30 02:18:18;;;;;;;3.13;2.10;;;17.70;98.20;;;;;;4954200;29;20222;-94
2023/07/30 02:20:45;;;;;;;2.15;1.90;;;17.70;98.30;;;;;;4954531;29;20233;-94
2023/07/30 02:28:36;;;;;;;2.55;2.20;;;17.90;97.60;;;;;;4917051;29;20316;-94
2023/07/30 02:33:44;;;;;;;2.20;2.00;;;18.00;97.60;;;;;;4951254;29;20204;-95
2023/07/30 02:36:11;;;;;;;2.20;2.00;;;18.00;97.60;;;;;;4942329;29;20224;-94
2023/07/30 02:38:39;;;;;;;2.30;1.92;;;18.00;97.60;;;;;;4937196;29;20202;-95
2023/07/30 02:41:06;;;;;;;4.05;2.28;;;18.00;97.60;;;;;;4943022;29;20210;-93
2023/07/30 02:46:14;;;;;;;2.15;2.03;;;18.00;97.60;;;;;;4931285;29;20249;-94
2023/07/30 02:51:21;;;;;;;3.63;1.95;;;18.10;97.70;;;;;;4947750;29;20201;-92
2023/07/30 02:56:33;;;;;;;5.50;2.10;;;18.20;97.40;;;;;;4944804;29;20226;-94
2023/07/30 02:59:00;;;;;;;2.65;2.03;;;18.30;97.30;;;;;;4925709;29;20214;-94
2023/07/30 03:04:08;;;;;;;2.42;2.22;;;18.30;97.70;;;;;;4916543;29;20232;-93
2023/07/30 03:06:35;;;;;;;2.75;2.00;;;18.30;97.30;;;;;;4932136;29;20196;-94
2023/07/30 03:11:44;;;;;;;2.30;2.10;;;18.20;97.50;;;;;;4934239;29;20206;-95
2023/07/30 03:14:11;;;;;;;2.40;2.00;;;18.20;97.70;;;;;;4926255;29;20203;-94
2023/07/30 03:16:41;;;;;;;2.90;2.03;;;18.20;97.90;;;;;;4948190;29;20233;-95
2023/07/30 03:19:08;;;;;;;2.47;2.28;;;18.10;98.00;;;;;;4935201;29;20248;-94
2023/07/30 03:21:35;;;;;;;2.88;2.25;;;18.10;98.50;;;;;;4953689;29;20205;-94
2023/07/30 03:26:44;;;;;;;2.60;2.22;;;18.20;98.30;;;;;;4942162;29;20206;-94
2023/07/30 03:29:11;;;;;;;2.63;2.30;;;18.30;98.00;;;;;;4940085;29;20182;-94
2023/07/30 03:34:18;;;;;;;4.47;2.17;;;18.30;97.70;;;;;;4948976;29;20202;-94
2023/07/30 03:36:45;;;;;;;6.28;2.40;;;18.30;98.40;;;;;;4953693;29;20229;-94
2023/07/30 03:39:13;;;;;;;2.90;2.50;;;18.20;98.60;;;;;;4953801;29;20206;-94
2023/07/30 03:44:21;;;;;;;2.45;2.25;;;18.00;99.10;;;;;;4918006;29;20209;-95
2023/07/30 03:49:29;;;;;;;3.90;2.25;;;17.70;99.70;;;;;;4951423;29;20202;-94
2023/07/30 03:51:55;;;;;;;3.47;2.50;;;17.70;99.90;;;;;;4938939;29;20205;-94
2023/07/30 03:57:36;;;;;;;2.85;2.35;;;17.70;99.90;;;;;;4921820;29;20249;-93
2023/07/30 04:02:44;;;;;;;2.60;2.40;;;17.70;99.90;;;;;;4949788;29;20213;-94
2023/07/30 04:07:51;;;;;;;2.53;2.33;;;17.70;99.90;;;;;;4944819;29;20230;-94
2023/07/30 04:13:01;;;;;;;2.78;2.58;;;17.70;99.90;;;;;;4925069;29;20205;-94
2023/07/30 04:15:27;;;;;;;3.00;2.55;;;17.70;99.90;;;;;;4937127;29;20202;-94
2023/07/30 04:17:59;;;;;;;3.00;2.60;;;17.70;99.90;;;;;;4954940;29;20222;-94
2023/07/30 04:23:07;;;;;;;2.90;2.60;;;17.60;99.90;;;;;;4942481;29;20265;-94
2023/07/30 04:25:36;;;;;;;5.35;2.83;;;17.50;99.90;;;;;;4923356;29;20206;-94
2023/07/30 04:28:03;;;;;;;2.63;2.42;;;17.50;99.90;;;;;;4953706;29;20206;-94
2023/07/30 04:30:30;;;;;;;2.78;2.45;;;17.50;99.90;;;;;;4939911;29;20238;-95
2023/07/30 04:32:56;;;;;;;2.42;2.20;;;17.50;99.90;;;;;;4946076;29;20209;-94
2023/07/30 04:35:23;;;;;;;3.53;2.47;;;17.50;99.90;;;;;;4947902;29;20198;-94
2023/07/30 04:37:50;;;;;;;2.55;2.30;;;17.60;99.90;;;;;;4953057;29;20217;-95
2023/07/30 04:40:17;;;;;;;2.90;2.50;;;17.70;99.90;;;;;;4942711;29;20217;-95
2023/07/30 04:42:46;;;;;;;2.90;2.60;;;17.80;99.90;;;;;;4907338;29;20206;-94
2023/07/30 04:45:13;;;;;;;2.45;2.22;;;17.80;99.90;;;;;;4939519;29;20261;-94
2023/07/30 04:47:39;;;;;;;4.05;2.50;;;17.80;99.90;;;;;;4937407;29;20194;-93
2023/07/30 04:50:07;;;;;;;3.40;2.40;;;17.80;99.90;;;;;;4923935;29;20202;-94
2023/07/30 04:52:34;;;;;;;3.40;2.75;;;17.80;99.90;;;;;;4939020;29;20220;-95
2023/07/30 04:55:01;;;;;;;2.40;2.20;;;17.90;99.90;;;;;;4950370;29;20208;-94
2023/07/30 04:57:27;;;;;;;3.15;2.33;;;17.90;99.90;;;;;;4955719;29;20289;-94
2023/07/30 05:02:36;;;;;;;2.40;2.20;;;18.00;99.90;;;;;;4945657;29;20269;-94
2023/07/30 05:05:03;;;;;;;2.50;2.30;;;18.10;99.90;;;;;;4949041;29;20205;-94
2023/07/30 05:07:33;;;;;;;2.90;1.77;;;18.20;99.60;;;;;;4954096;29;20212;-94
2023/07/30 05:12:41;;;;;;;2.78;2.42;;;18.30;98.80;;;;;;4940068;29;20214;-94
2023/07/30 05:18:07;;;;;;;2.25;2.10;;;18.30;98.00;;;;;;4878577;29;20270;-93
2023/07/30 05:20:34;;;;;;;2.03;1.90;;;18.30;97.90;;;;;;4933280;29;20210;-94
2023/07/30 05:25:53;;;;;;;1.95;1.85;;;18.50;97.60;;;;;;4934068;29;20255;-94
2023/07/30 05:28:20;;;;;;;2.65;2.45;;;18.50;96.90;;;;;;4945880;29;20238;-94
2023/07/30 05:30:50;;;;;;;3.65;2.15;;;18.50;97.10;;;;;;4929188;29;20210;-95
2023/07/30 05:33:17;;;;;;;2.17;1.90;;;18.50;97.80;;;;;;4942947;29;20265;-94
2023/07/30 05:36:05;;;;;;;2.78;2.30;;;18.60;97.60;;;;;;4938611;29;20659;-93
2023/07/30 05:38:32;;;;;;;2.30;2.10;;;18.70;97.10;;;;;;4941452;29;20225;-94
2023/07/30 05:40:59;;;;;;;2.70;2.40;;;18.80;96.70;;;;;;4944286;29;20229;-94
2023/07/30 05:43:26;;;;;;;3.83;2.15;;;19.00;95.90;;;;;;4944813;29;20203;-94
2023/07/30 05:48:35;;;;;;;3.05;2.22;;;19.20;93.90;;;;;;4951287;29;20197;-93
2023/07/30 05:51:02;;;;;;;2.53;2.33;;;19.20;93.60;;;;;;4949717;29;20212;-94
2023/07/30 05:53:29;;;;;;;2.40;2.20;;;19.20;94.10;;;;;;4949266;29;20198;-94
2023/07/30 05:55:56;;;;;;;2.75;2.50;;;19.30;94.30;;;;;;4944923;29;20206;-94
2023/07/30 05:58:31;;;;;;;2.47;2.10;;;19.30;93.90;;;;;;4948238;29;20203;-93
2023/07/30 06:01:07;;;;;;;2.45;2.25;;;19.50;92.60;;;;;;4946726;29;20202;-93
2023/07/30 06:03:34;;;;;;;2.15;1.95;;;19.60;92.50;;;;;;4952653;29;20202;-93
2023/07/30 06:08:44;;;;;;;3.10;2.13;;;19.50;92.50;;;;;;4948706;29;20194;-94
2023/07/30 06:11:11;;;;;;;2.40;2.20;;;19.40;92.50;;;;;;4933914;29;20274;-94
2023/07/30 06:13:38;;;;;;;2.53;2.20;;;19.50;92.50;;;;;;4948451;29;20209;-94
2023/07/30 06:16:06;;;;;;;2.47;2.28;;;19.50;92.50;;;;;;4948866;29;20198;-93
2023/07/30 06:18:33;;;;;;;2.38;2.17;;;19.50;92.80;;;;;;4935408;29;20254;-93
2023/07/30 06:21:10;;;;;;;2.20;2.05;;;19.50;92.50;;;;;;4945249;29;20205;-94
2023/07/30 06:23:37;;;;;;;2.38;2.17;;;19.60;92.50;;;;;;4949612;29;20206;-95
2023/07/30 06:26:03;;;;;;;2.88;2.20;;;19.60;92.50;;;;;;4951065;29;20202;-94
2023/07/30 06:31:14;;;;;;;2.78;2.25;;;19.70;92.60;;;;;;4954163;29;20265;-93
2023/07/30 06:33:41;;;;;;;2.92;2.10;;;19.80;92.60;;;;;;4953002;29;20217;-94
2023/07/30 06:36:08;;;;;;;2.40;2.20;;;19.90;91.00;;;;;;4950904;29;20262;-94
2023/07/30 06:38:35;;;;;;;2.60;2.20;;;20.00;91.10;;;;;;4933704;29;20206;-94
2023/07/30 06:41:01;;;;;;;3.47;2.17;;;20.10;90.80;;;;;;4956259;29;20273;-94
2023/07/30 06:43:28;;;;;;;2.17;2.03;;;20.10;91.50;;;;;;4955593;29;20206;-93
2023/07/30 06:45:55;;;;;;;2.30;2.10;;;20.10;90.90;;;;;;4935052;29;20212;-94
2023/07/30 06:53:49;;;;;;;2.85;2.10;;;20.30;89.50;;;;;;4950270;29;20241;-94
2023/07/30 06:56:16;;;;;;;2.30;2.10;;;20.30;90.00;;;;;;4954297;29;20214;-94
2023/07/30 07:01:33;;;;;;;2.40;1.90;;;20.50;89.70;;;;;;4946443;29;20313;-94
2023/07/30 07:04:03;;;;;;;2.03;1.85;;;20.60;88.10;;;;;;4953642;29;20229;-93
2023/07/30 07:06:50;;;;;;;5.13;2.10;;;20.70;87.80;;;;;;4955843;29;20232;-92
2023/07/30 07:09:17;;;;;;;2.42;2.22;;;20.70;85.10;;;;;;4948774;29;20206;-94
2023/07/30 07:11:44;;;;;;;2.30;2.10;;;20.90;87.90;;;;;;4949729;29;20222;-93
2023/07/30 07:14:11;;;;;;;5.32;2.10;;;21.00;84.00;;;;;;4947810;29;20666;-93
2023/07/30 07:16:38;;;;;;;2.03;1.80;;;21.20;83.00;;;;;;4951022;29;20226;-94
2023/07/30 07:21:49;;;;;;;16.15;14.55;;;21.50;81.90;;;;;;4926817;29;20222;-93
2023/07/30 07:24:16;;;;;;;2.45;2.25;;;21.60;80.60;;;;;;4947444;29;20262;-94
2023/07/30 07:26:42;;;;;;;2.30;2.10;;;21.70;80.10;;;;;;4948525;29;20218;-94
2023/07/30 07:29:10;;;;;;;2.70;2.15;;;21.70;77.70;;;;;;4938630;29;20206;-93
2023/07/30 07:31:37;;;;;;;2.25;2.05;;;21.70;77.20;;;;;;4955256;29;20216;-93
2023/07/30 07:34:04;;;;;;;2.67;2.17;;;21.70;74.30;;;;;;4938442;29;20202;-94
2023/07/30 07:41:43;;;;;;;2.88;1.75;;;21.90;74.80;;;;;;5186468;23;20219;-92
2023/07/30 07:44:10;;;;;;;2.60;1.98;;;21.80;68.20;;;;;;4991256;28;20185;-93
2023/07/30 07:46:37;;;;;;;2.25;1.98;;;21.70;70.90;;;;;;4981741;28;20211;-90
2023/07/30 07:49:04;;;;;;;4.78;2.40;;;21.70;70.10;;;;;;4971069;28;20204;-91
2023/07/30 07:54:13;;;;;;;2.08;1.88;;;21.60;73.30;;;;;;4984677;28;20239;-92
2023/07/30 07:56:40;;;;;;;36.60;32.78;;;21.80;73.60;;;;;;4981912;28;20220;-90
2023/07/30 07:59:07;;;;;;;2.40;2.20;;;22.00;66.60;;;;;;4996077;28;20197;-91
2023/07/30 08:01:34;;;;;;;3.63;2.70;;;22.20;66.40;;;;;;4976797;28;20239;-91
2023/07/30 08:04:00;;;;;;;2.30;1.73;;;22.20;65.40;;;;;;4956168;29;20204;-93
2023/07/30 08:32:03;;;;;;;3.15;2.00;;;23.40;46.90;;;;;;4997251;28;20216;-91
2023/07/30 08:34:29;;;;;;;2.65;1.85;;;23.40;45.10;;;;;;5005865;28;20203;-91
2023/07/30 08:36:56;;;;;;;1.98;1.77;;;23.70;40.70;;;;;;5003163;28;20189;-91
2023/07/30 08:39:23;;;;;;;3.20;2.00;;;24.10;35.50;;;;;;5007126;28;20207;-89
2023/07/30 08:41:51;;;;;;;2.28;2.00;;;23.90;38.80;;;;;;5004745;28;20192;-90
2023/07/30 08:47:21;;;;;;;2.53;1.92;;;23.40;40.80;;;;;;5002335;28;20259;-91
2023/07/30 08:49:48;;;;;;;9.90;7.97;;;23.30;40.30;;;;;;5001723;28;20189;-92
2023/07/30 08:52:18;;;;;;;12.85;10.90;;;23.20;39.50;;;;;;5004813;28;20231;-90
2023/07/30 08:54:47;;;;;;;3.10;2.58;;;23.20;42.20;;;;;;5010466;28;20200;-90
2023/07/30 08:57:14;;;;;;;4.32;3.65;;;23.80;39.20;;;;;;5009501;28;20204;-90
2023/07/30 08:59:49;;;;;;;2.28;2.03;;;24.90;34.40;;;;;;5003890;28;20202;-90
2023/07/30 09:05:06;;;;;;;2.15;2.03;;;27.80;20.90;;;;;;4984502;28;20208;-91
2023/07/30 09:07:34;;;;;;;2.78;2.17;;;28.10;18.10;;;;;;4993291;28;20205;-91
2023/07/30 09:10:01;;;;;;;3.90;1.90;;;27.80;19.60;;;;;;4998519;28;20187;-90
2023/07/30 09:20:41;;;;;;;2.30;2.20;;;28.90;16.10;;;;;;4984710;28;20196;-94
2023/07/30 09:23:09;;;;;;;3.33;2.08;;;29.70;15.70;;;;;;4972110;28;20346;-94
2023/07/30 09:25:36;;;;;;;2.15;1.92;;;30.10;13.60;;;;;;4964143;28;20235;-93
2023/07/30 09:28:04;;;;;;;2.70;2.50;;;30.40;13.70;;;;;;4968047;28;20211;-93
2023/07/30 09:30:33;;;;;;;2.40;2.20;;;31.30;11.00;;;;;;4955738;28;20229;-93
2023/07/30 09:33:00;;;;;;;2.33;2.22;;;31.80;9.90;;;;;;4964441;28;20563;-93
2023/07/30 09:35:27;;;;;;;2.40;2.22;;;31.50;9.80;;;;;;4963749;28;20296;-93
2023/07/30 09:40:41;;;;;;;2.30;2.20;;;29.50;13.10;;;;;;4960031;28;20212;-93
2023/07/30 09:43:08;;;;;;;3.40;2.20;;;29.30;14.90;;;;;;4959746;28;20291;-93
2023/07/30 09:48:18;;;;;;;2.10;2.00;;;28.80;14.00;;;;;;4963490;28;20743;-92
2023/07/30 09:51:05;;;;;;;2.78;1.98;;;28.40;14.80;;;;;;4946696;28;20229;-93
2023/07/30 09:56:15;;;;;;;4.13;2.85;;;28.40;16.70;;;;;;4927860;29;20209;-91
2023/07/30 10:01:28;;;;;;;2.28;2.10;;;29.10;13.50;;;;;;4958291;28;20209;-90
2023/07/30 10:03:57;;;;;;;2.50;2.33;;;29.50;14.10;;;;;;4954402;28;20214;-90
2023/07/30 10:06:27;;;;;;;1.95;1.85;;;29.50;15.00;;;;;;4946178;29;20215;-91
2023/07/30 10:08:57;;;;;;;6.05;5.55;;;29.70;14.10;;;;;;4958324;28;20196;-92
2023/07/30 10:11:24;;;;;;;6.28;5.78;;;29.70;13.00;;;;;;4959238;29;20757;-94
2023/07/30 10:13:59;;;;;;;2.20;1.98;;;29.20;15.50;;;;;;4957617;29;20238;-93
2023/07/30 10:16:32;;;;;;;6.43;5.93;;;28.50;15.20;;;;;;4953170;28;20337;-94
2023/07/30 10:19:09;;;;;;;4.88;4.47;;;27.30;15.30;;;;;;5013963;23;20235;-91
2023/07/30 10:21:43;;;;;;;1.75;1.65;;;26.50;17.50;;;;;;4977505;28;20303;-91
2023/07/30 10:24:41;;;;;;;2.20;2.00;;;26.00;18.40;;;;;;4947340;29;20229;-92
2023/07/30 10:27:37;;;;;;;8.65;7.85;;;24.90;20.20;;;;;;5001306;28;20199;-92
2023/07/30 10:35:56;;;;;;;2.40;2.20;;;23.10;30.00;;;;;;5010243;28;20208;-92
2023/07/30 10:38:51;;;;;;;11.65;10.52;;;23.10;31.90;;;;;;4990469;28;20212;-92
2023/07/30 10:41:21;;;;;;;1.60;1.50;;;23.70;35.10;;;;;;5005416;28;20208;-92
2023/07/30 10:43:49;;;;;;;1.90;1.70;;;25.00;29.60;;;;;;5002280;28;20199;-92
2023/07/30 10:51:46;;;;;;;1.83;1.73;;;26.30;21.80;;;;;;4994937;28;20262;-93
2023/07/30 10:54:13;;;;;;;3.15;2.85;;;26.30;24.60;;;;;;4982782;28;20208;-93
2023/07/30 10:59:21;;;;;;;2.20;2.00;;;27.30;19.70;;;;;;4990514;28;20207;-93
2023/07/30 11:01:47;;;;;;;3.10;2.80;;;27.30;20.00;;;;;;4983783;28;20206;-93
2023/07/30 11:04:17;;;;;;;2.28;2.08;;;27.00;21.70;;;;;;4970789;28;20771;-92
2023/07/30 11:06:48;;;;;;;81.82;74.32;;;27.10;20.00;;;;;;4975864;28;20270;-94
2023/07/30 11:12:05;;;;;;;4.88;3.60;;;27.40;19.90;;;;;;5008432;28;20226;-94
2023/07/30 11:14:32;;;;;;;3.83;3.42;;;27.20;20.00;;;;;;4982999;28;20287;-93
2023/07/30 11:19:44;;;;;;;2.08;1.88;;;26.80;22.90;;;;;;4976979;28;20248;-92
2023/07/30 11:22:11;;;;;;;5.30;2.35;;;26.60;22.10;;;;;;4975604;28;20582;-90
2023/07/30 11:24:38;;;;;;;2.22;2.03;;;26.50;22.40;;;;;;4975427;28;20195;-91
2023/07/30 11:27:05;;;;;;;2.67;2.47;;;26.60;19.20;;;;;;4973597;28;20215;-92
2023/07/30 11:29:33;;;;;;;2.85;2.00;;;26.50;21.20;;;;;;4963985;28;20224;-91
2023/07/30 11:32:02;;;;;;;4.88;2.00;;;26.70;22.90;;;;;;4974010;28;20226;-92
2023/07/30 11:34:30;;;;;;;4.03;2.00;;;27.20;21.30;;;;;;4974389;28;20637;-88
2023/07/30 11:36:59;;;;;;;1.90;1.80;;;27.50;20.70;;;;;;4978016;28;20208;-91
2023/07/30 11:39:28;;;;;;;2.00;1.88;;;27.60;19.40;;;;;;4991242;28;20263;-92
2023/07/30 11:41:55;;;;;;;2.30;2.10;;;27.20;17.10;;;;;;4980245;28;20212;-90
2023/07/30 11:44:31;;;;;;;2.17;2.00;;;26.70;18.30;;;;;;4994416;28;20195;-89
2023/07/30 11:53:04;;;;;;;1.55;1.45;;;26.80;17.70;;;;;;4981244;28;20196;-89
2023/07/30 11:55:38;;;;;;;2.45;1.77;;;26.60;18.50;;;;;;4980967;28;20263;-88
2023/07/30 11:58:07;;;;;;;2.10;1.90;;;26.20;20.30;;;;;;4979568;28;20290;-89
2023/07/30 12:00:34;;;;;;;5.05;2.05;;;25.60;20.70;;;;;;4979214;28;20204;-92
2023/07/30 12:03:11;;;;;;;21.85;19.70;;;25.40;22.50;;;;;;4989238;28;20201;-91
2023/07/30 12:05:39;;;;;;;3.40;3.10;;;25.30;23.20;;;;;;4980813;28;20197;-90
2023/07/30 12:11:03;;;;;;;4.03;2.55;;;25.00;24.50;;;;;;4973111;28;20320;-89
2023/07/30 12:14:00;;;;;;;2.00;1.90;;;25.40;22.80;;;;;;4962957;28;20221;-90
2023/07/30 12:24:56;;;;;;;2.38;1.90;;;25.90;20.40;;;;;;5071577;23;20236;-93
2023/07/30 12:27:43;;;;;;;2.75;2.00;;;25.70;20.30;;;;;;4994883;28;20208;-90
2023/07/30 12:30:11;;;;;;;3.67;3.38;;;25.70;22.10;;;;;;4992142;28;20205;-91
2023/07/30 12:32:38;;;;;;;4.53;2.58;;;25.80;20.80;;;;;;4990776;28;20224;-90
2023/07/30 12:35:05;;;;;;;2.40;2.20;;;25.90;21.90;;;;;;4989223;28;20200;-91
2023/07/30 12:37:32;;;;;;;2.10;1.73;;;25.90;22.50;;;;;;4977119;28;20208;-89
2023/07/30 12:40:01;;;;;;;2.45;2.25;;;25.90;23.50;;;;;;4985230;28;20205;-92
2023/07/30 12:42:28;;;;;;;2.35;1.98;;;26.20;22.00;;;;;;4977572;28;20193;-88
2023/07/30 12:44:54;;;;;;;2.83;2.50;;;26.10;21.30;;;;;;4977327;28;20200;-90
2023/07/30 12:47:21;;;;;;;3.38;3.08;;;25.90;22.40;;;;;;4975783;28;20205;-88
2023/07/30 12:49:48;;;;;;;4.22;3.60;;;25.80;23.00;;;;;;4978517;28;20197;-93
2023/07/30 12:52:15;;;;;;;2.50;2.17;;;25.60;24.30;;;;;;4970887;28;20265;-91
2023/07/30 12:54:42;;;;;;;2.00;1.90;;;25.50;24.80;;;;;;4972012;28;20666;-90
2023/07/30 12:57:11;;;;;;;2.28;2.08;;;25.70;27.00;;;;;;4976642;28;20218;-88
2023/07/30 12:59:38;;;;;;;2.67;2.03;;;25.80;24.90;;;;;;4979555;28;20200;-90
2023/07/30 13:02:05;;;;;;;3.38;3.08;;;25.60;25.20;;;;;;4972325;28;20212;-89
2023/07/30 13:04:32;;;;;;;2.42;2.08;;;25.20;27.50;;;;;;4975457;28;20193;-88
2023/07/30 13:06:59;;;;;;;2.67;2.47;;;25.10;30.70;;;;;;4973802;28;20205;-88
2023/07/30 13:09:26;;;;;;;2.33;1.90;;;25.10;29.40;;;;;;4986997;28;20259;-88
2023/07/30 13:11:53;;;;;;;2.50;1.80;;;25.30;27.90;;;;;;4970579;28;20229;-89
2023/07/30 13:14:21;;;;;;;2.33;2.13;;;25.50;28.30;;;;;;4970485;28;20231;-89
2023/07/30 13:16:48;;;;;;;2.05;1.80;;;25.60;27.30;;;;;;4966626;28;20203;-88
2023/07/30 13:19:15;;;;;;;2.90;2.33;;;25.50;26.70;;;;;;4962848;28;20712;-88
2023/07/30 13:21:42;;;;;;;2.05;1.90;;;25.40;27.80;;;;;;4959163;28;20204;-89
2023/07/30 13:24:12;;;;;;;2.10;1.90;;;25.00;30.60;;;;;;4943966;29;20221;-87
2023/07/30 13:26:39;;;;;;;2.53;1.98;;;24.80;29.30;;;;;;4961479;28;20209;-89
2023/07/30 13:29:06;;;;;;;3.40;2.22;;;24.80;30.50;;;;;;4963594;28;20194;-92
2023/07/30 13:31:34;;;;;;;2.20;1.92;;;24.90;29.70;;;;;;4966032;28;20225;-89
2023/07/30 13:34:01;;;;;;;2.38;2.17;;;25.00;29.30;;;;;;4965340;28;20229;-88
2023/07/30 13:36:28;;;;;;;6.13;2.10;;;24.70;29.00;;;;;;4963182;28;20212;-88
2023/07/30 13:38:56;;;;;;;2.42;2.10;;;24.40;30.60;;;;;;4986926;28;20184;-92
2023/07/30 13:41:23;;;;;;;3.97;2.20;;;24.20;32.50;;;;;;4971797;28;20217;-89
2023/07/30 13:43:50;;;;;;;2.97;2.25;;;24.00;35.40;;;;;;4973354;28;20200;-92
2023/07/30 13:46:17;;;;;;;2.35;2.10;;;24.00;34.90;;;;;;4977892;28;20196;-91
2023/07/30 13:48:45;;;;;;;2.40;2.20;;;23.80;35.20;;;;;;4972533;28;20196;-90
2023/07/30 13:51:12;;;;;;;5.28;2.47;;;23.60;37.20;;;;;;4979325;28;20212;-90
2023/07/30 13:53:41;;;;;;;7.75;2.55;;;23.10;49.50;;;;;;4966423;28;20209;-89
2023/07/30 13:56:08;;;;;;;3.80;1.98;;;21.30;76.50;;;;;;4953031;28;20200;-90
2023/07/30 13:58:35;;;;;;;4.05;2.15;;;20.50;90.90;;;;;;4955724;29;20207;-92
2023/07/30 14:01:02;;;;;;;4.25;2.20;;;20.30;93.80;;;;;;4951530;28;20650;-91
2023/07/30 14:03:29;;;;;;;3.65;2.60;;;20.30;95.50;;;;;;4951492;28;20230;-92
2023/07/30 14:06:05;;;;;;;4.13;3.38;;;20.70;97.50;;;;;;4967143;28;20213;-93
2023/07/30 14:08:32;;;;;;;2.78;2.53;;;20.80;96.80;;;;;;4970258;28;20273;-93
2023/07/30 14:11:00;;;;;;;3.38;2.38;;;20.90;97.00;;;;;;4962212;28;20648;-92
2023/07/30 14:13:26;;;;;;;4.03;2.20;;;21.00;96.80;;;;;;4979216;28;20221;-95
2023/07/30 14:15:53;;;;;;;2.80;2.15;;;21.00;95.80;;;;;;4966660;28;20202;-94
2023/07/30 14:18:20;;;;;;;4.32;2.45;;;21.10;95.00;;;;;;4979948;28;20256;-93
2023/07/30 14:20:47;;;;;;;2.70;2.50;;;21.00;94.60;;;;;;4976675;28;20260;-92
2023/07/30 14:36:43;;;;;;;3.50;2.40;;;21.00;94.90;;;;;;6182871;22;1399945;-92
2023/07/30 14:39:10;;;;;;;2.60;2.40;;;21.40;92.40;;;;;;6275402;22;20188;-91
2023/07/30 14:41:39;;;;;;;3.35;2.50;;;21.40;93.00;;;;;;6265754;23;20206;-92
2023/07/30 14:44:06;;;;;;;2.63;2.42;;;21.50;91.70;;;;;;6267033;23;20216;-92
2023/07/30 14:46:33;;;;;;;3.35;2.25;;;21.50;92.50;;;;;;6273749;22;20199;-90
2023/07/30 14:51:43;;;;;;;3.70;2.45;;;21.60;90.50;;;;;;6279528;22;20167;-93
2023/07/30 14:54:30;;;;;;;11.05;4.38;;;21.70;89.40;;;;;;6277445;23;20187;-92
2023/07/30 14:56:57;;;;;;;3.55;2.50;;;21.70;85.40;;;;;;6274763;23;20180;-92
2023/07/30 14:59:25;;;;;;;5.53;3.42;;;21.70;87.60;;;;;;6276980;22;20177;-91
2023/07/30 15:01:52;;;;;;;8.02;4.03;;;21.70;89.80;;;;;;6273135;23;20330;-92
2023/07/30 15:04:19;;;;;;;5.47;3.08;;;21.60;86.00;;;;;;6276141;22;20196;-91
2023/07/30 15:06:49;;;;;;;5.38;3.17;;;21.60;86.60;;;;;;6273566;23;20442;-91
2023/07/30 15:09:16;;;;;;;3.72;2.90;;;21.60;82.00;;;;;;6272632;22;20253;-91
2023/07/30 15:11:43;;;;;;;6.38;3.47;;;21.60;87.80;;;;;;6266648;23;20200;-92
2023/07/30 15:14:09;;;;;;;7.65;5.10;;;21.70;85.50;;;;;;6270021;23;20268;-89
2023/07/30 15:16:36;;;;;;;7.85;5.15;;;21.70;82.00;;;;;;6260940;22;20172;-91
2023/07/30 15:19:04;;;;;;;6.70;3.55;;;22.00;78.70;;;;;;6259033;22;20197;-92
2023/07/30 15:21:31;;;;;;;3.97;3.10;;;22.30;78.00;;;;;;6260131;23;20161;-91
2023/07/30 15:27:26;;;;;;;5.43;3.00;;;22.20;82.40;;;;;;6260915;22;20161;-89
2023/07/30 15:29:53;;;;;;;4.32;2.90;;;22.00;66.20;;;;;;6266335;22;20183;-93
2023/07/30 15:32:20;;;;;;;3.70;2.00;;;21.90;57.60;;;;;;6276297;23;20203;-91
2023/07/30 15:35:31;;;;;;;3.08;2.60;;;22.00;56.20;;;;;;6280885;22;20184;-91
2023/07/30 15:38:00;;;;;;;2.88;1.98;;;22.20;50.70;;;;;;6300790;22;20215;-90
2023/07/30 15:40:27;;;;;;;3.95;1.75;;;22.30;44.90;;;;;;6264376;22;20179;-90
2023/07/30 15:42:56;;;;;;;4.05;2.42;;;22.40;41.50;;;;;;6240859;22;20172;-90
2023/07/30 15:45:26;;;;;;;2.33;2.10;;;22.40;45.30;;;;;;6286360;22;20196;-92
2023/07/30 15:48:02;;;;;;;2.20;2.00;;;22.30;43.30;;;;;;6263813;22;20230;-88
2023/07/30 15:57:34;;;;;;;2.30;2.10;;;22.60;38.50;;;;;;6283168;22;20156;-88
2023/07/30 16:07:31;;;;;;;2.05;1.85;;;23.00;34.50;;;;;;6283439;22;20165;-90
2023/07/30 17:17:44;;;;;;;3.75;2.40;;;22.10;29.90;;;;;;6238170;22;20177;-90
2023/07/30 17:20:12;;;;;;;3.92;2.50;;;22.00;30.40;;;;;;6218747;23;20219;-90
2023/07/30 17:22:49;;;;;;;3.30;3.00;;;21.90;31.30;;;;;;6246004;23;20173;-92
2023/07/30 17:25:16;;;;;;;2.70;2.30;;;21.70;32.60;;;;;;6216718;23;20263;-92
2023/07/30 17:27:47;;;;;;;2.67;2.47;;;21.60;33.40;;;;;;6242986;23;20175;-90
2023/07/30 17:30:18;;;;;;;2.60;2.20;;;21.70;31.70;;;;;;6194561;23;20684;-90
2023/07/30 17:32:45;;;;;;;2.75;2.28;;;21.80;32.20;;;;;;6187137;23;20174;-90
2023/07/30 17:35:12;;;;;;;2.97;2.30;;;21.80;32.50;;;;;;6218378;23;20177;-90
2023/07/30 17:37:39;;;;;;;3.08;2.50;;;21.80;33.60;;;;;;6245066;23;20482;-89
2023/07/30 17:40:10;;;;;;;4.47;2.67;;;21.80;33.60;;;;;;6244850;23;20173;-90
2023/07/30 17:42:37;;;;;;;2.90;2.60;;;21.70;33.50;;;;;;6217684;23;20173;-89
2023/07/30 17:45:07;;;;;;;4.30;2.60;;;21.70;33.50;;;;;;6243869;23;20200;-89
2023/07/30 17:47:36;;;;;;;2.55;2.22;;;21.60;33.40;;;;;;6242699;23;20173;-90
2023/07/30 17:50:03;;;;;;;2.70;2.40;;;21.60;33.50;;;;;;6244607;23;20181;-90
2023/07/30 17:52:30;;;;;;;6.60;2.70;;;21.50;34.80;;;;;;6244926;23;20179;-90
2023/07/30 17:54:57;;;;;;;2.70;2.50;;;21.50;37.50;;;;;;6242695;23;20173;-90
2023/07/30 17:57:24;;;;;;;3.33;2.53;;;21.30;38.60;;;;;;6244647;23;20179;-89
2023/07/30 17:59:51;;;;;;;3.53;2.70;;;21.20;41.10;;;;;;6218679;23;20622;-89
2023/07/30 18:02:19;;;;;;;2.80;2.45;;;21.20;40.90;;;;;;6218952;23;20170;-89
2023/07/30 18:04:47;;;;;;;2.40;2.20;;;21.00;42.30;;;;;;6244289;23;20194;-89